Portada
METAR-TAF:

METAR-TAF

Aeroports :

Aeroport de Florència-Peretola

Florència, Itàlia

latitud: 43-48N, longitud: 011-12E, altitud: 40 m

Observació

L'informe es va fer fa 12 minuts, a les 00:20 UTC
Vent 1 kt amb direcció variable
Temperatura 24°C
Humitat 69%
Pressió 1017 hPa
Visibilitat 10 km o més
sense núvols per sota de 1500 mi sense presència de cumulonimbus.

METAR: LIRQ 190020Z VRB01KT CAVOK 24/18 Q1017

Hora: 02:32 (00:32 UTC)

Pronòstic

L'informe es va fer fa 1 hora i 32 minuts, a les 23:00 UTC
Pronòstic vàlid del 19 a les 00 UTC al 19 a les 24 UTC
Vent 5 kt amb direcció variable
Visibilitat 10 km o més
sense núvols per sota de 1500 mi sense presència de cumulonimbus.
Temporalment
l' 19 a les 00 UTC al 19 a les 06 UTC
Visibilitat: 2000 m
Núvols disperses a una alçada de 1000 ft
boirina,

TAF: LIRQ 182300Z 1900/1924 VRB05KT CAVOK TEMPO 1900/1906 2000 BR SCT010

Observacions i pronòstics meteorològics de més de 4000 aeroports (METAR i TAF).

Les estacions disponibles són els punts grocs i vermells al mapa.

Posi el ratolí al punt desitjat per veure el nom de l'estació.

Feu clic per veure les observacions i els pronòstics meteorològics.

Per canviar el mapa: feu clic els botons verds amb una creu de color negre per apropar; al botó verd amb un guió per allunyar la imatge; o en les fletxes verdes per a mapes adjacents.


METAR-TAF: